createdAt,value
2017-08-14T00:00:01.229Z,11.60
2017-08-14T00:02:29.479Z,11.60
2017-08-14T00:04:56.961Z,11.60
2017-08-14T00:16:02.673Z,11.40
2017-08-14T00:18:30.174Z,11.40
2017-08-14T00:20:58.446Z,11.50
2017-08-14T00:23:25.945Z,11.50
2017-08-14T00:25:53.444Z,11.60
2017-08-14T00:28:20.942Z,11.70
2017-08-14T00:30:48.428Z,11.70
2017-08-14T00:33:15.911Z,11.70
2017-08-14T00:35:43.399Z,11.70
2017-08-14T00:38:10.904Z,11.60
2017-08-14T00:40:38.390Z,11.60
2017-08-14T00:43:05.875Z,11.70
2017-08-14T00:45:33.366Z,11.70
2017-08-14T00:48:00.863Z,11.70
2017-08-14T00:50:28.351Z,11.70
2017-08-14T00:52:56.630Z,11.60
2017-08-14T00:55:24.288Z,11.60
2017-08-14T00:57:51.766Z,11.50
2017-08-14T01:00:19.286Z,11.50
2017-08-14T01:02:47.518Z,11.40
2017-08-14T01:05:15.002Z,11.40
2017-08-14T01:07:43.271Z,11.50
2017-08-14T01:10:10.758Z,11.50
2017-08-14T01:12:38.237Z,11.40
2017-08-14T01:15:05.737Z,11.30
2017-08-14T01:17:33.223Z,11.20
2017-08-14T01:20:00.751Z,11.10
2017-08-14T01:22:28.230Z,11.10
2017-08-14T01:24:55.752Z,11.20
2017-08-14T01:27:23.251Z,11.10
2017-08-14T01:29:50.731Z,11.00
2017-08-14T01:32:18.237Z,11.00
2017-08-14T01:34:45.716Z,10.90
2017-08-14T01:37:13.210Z,10.80
2017-08-14T01:39:40.706Z,10.80
2017-08-14T01:42:08.196Z,11.00
2017-08-14T01:44:35.666Z,11.00
2017-08-14T01:47:03.172Z,11.00
2017-08-14T01:49:30.651Z,11.10
2017-08-14T01:51:58.152Z,11.20
2017-08-14T01:54:25.634Z,11.20
2017-08-14T01:56:53.129Z,11.20
2017-08-14T01:59:20.618Z,11.10
2017-08-14T02:01:48.104Z,10.90
2017-08-14T02:04:15.594Z,10.80
2017-08-14T02:06:43.075Z,10.80
2017-08-14T02:09:10.578Z,10.70
2017-08-14T02:11:38.060Z,10.70
2017-08-14T02:14:05.554Z,10.60
2017-08-14T02:16:33.802Z,10.50
2017-08-14T02:19:01.336Z,10.50
2017-08-14T02:21:28.825Z,10.50
2017-08-14T02:23:56.322Z,10.50
2017-08-14T02:26:23.824Z,10.50
2017-08-14T02:28:51.340Z,10.50
2017-08-14T02:31:18.813Z,10.60
2017-08-14T02:33:46.282Z,10.60
2017-08-14T02:36:13.771Z,10.60
2017-08-14T02:38:41.256Z,10.70
2017-08-14T02:41:08.757Z,10.70
2017-08-14T02:43:36.234Z,10.80
2017-08-14T02:46:03.722Z,10.80
2017-08-14T02:48:31.196Z,10.60
2017-08-14T02:50:58.687Z,10.40
2017-08-14T02:53:26.165Z,10.40
2017-08-14T02:55:53.659Z,10.40
2017-08-14T02:58:21.153Z,10.30
2017-08-14T03:00:48.671Z,10.30
2017-08-14T03:03:16.165Z,10.20
2017-08-14T03:05:43.654Z,10.10
2017-08-14T03:08:11.143Z,10.10
2017-08-14T03:10:39.394Z,10.10
2017-08-14T03:13:06.898Z,10.10
2017-08-14T03:15:34.383Z,10.10
2017-08-14T03:18:01.893Z,10.10
2017-08-14T03:20:29.377Z,10.30
2017-08-14T03:22:56.890Z,10.40
2017-08-14T03:25:24.644Z,10.50
2017-08-14T03:27:52.148Z,10.40
2017-08-14T03:30:19.629Z,10.30
2017-08-14T03:32:47.135Z,10.20
2017-08-14T03:35:15.382Z,10.10
2017-08-14T03:37:42.852Z,10.10
2017-08-14T03:40:10.372Z,10.20
2017-08-14T03:42:37.887Z,10.30
2017-08-14T03:45:06.145Z,10.40
2017-08-14T03:47:33.630Z,10.40
2017-08-14T03:50:01.116Z,10.40
2017-08-14T03:52:28.595Z,10.30
2017-08-14T03:54:56.087Z,10.20
2017-08-14T03:57:24.353Z,10.00
2017-08-14T03:59:51.871Z,10.00
2017-08-14T04:02:19.360Z,10.00
2017-08-14T04:04:46.855Z,10.00
2017-08-14T04:07:14.359Z,10.00
2017-08-14T04:09:41.843Z,10.10
2017-08-14T04:12:09.374Z,10.00
2017-08-14T04:14:37.160Z,10.00
2017-08-14T04:17:04.651Z,9.90
2017-08-14T04:19:32.132Z,9.90
2017-08-14T04:21:59.622Z,9.90
2017-08-14T04:24:27.132Z,10.00
2017-08-14T04:26:54.626Z,9.90
2017-08-14T04:29:22.120Z,9.90
2017-08-14T04:31:50.391Z,10.10
2017-08-14T04:34:18.638Z,10.00
2017-08-14T04:36:46.127Z,9.90
2017-08-14T04:39:14.400Z,10.00
2017-08-14T04:41:41.879Z,9.90
2017-08-14T04:44:09.405Z,10.00
2017-08-14T04:46:36.862Z,10.00
2017-08-14T04:49:04.367Z,10.20
2017-08-14T04:51:31.864Z,10.40
2017-08-14T04:53:59.371Z,10.60
2017-08-14T04:56:26.847Z,10.80
2017-08-14T04:58:54.343Z,10.90
2017-08-14T05:01:21.824Z,11.00
2017-08-14T05:03:49.344Z,11.10
2017-08-14T05:06:16.834Z,11.10
2017-08-14T05:08:45.092Z,11.30
2017-08-14T05:11:12.593Z,11.20
2017-08-14T05:13:40.082Z,11.30
2017-08-14T05:16:07.577Z,11.40
2017-08-14T05:18:40.228Z,11.50
2017-08-14T05:21:07.722Z,11.50
2017-08-14T05:23:35.969Z,11.60
2017-08-14T05:26:03.464Z,11.60
2017-08-14T05:28:31.702Z,11.50
2017-08-14T05:30:59.195Z,11.50
2017-08-14T05:33:27.436Z,11.50
2017-08-14T05:35:54.923Z,11.50
2017-08-14T05:38:23.873Z,11.50
2017-08-14T05:40:51.363Z,11.50
2017-08-14T05:43:18.831Z,11.50
2017-08-14T05:45:47.091Z,11.50
2017-08-14T05:48:14.562Z,11.50
2017-08-14T05:50:42.023Z,11.60
2017-08-14T05:53:10.283Z,11.70
2017-08-14T05:55:37.782Z,11.70
2017-08-14T05:58:05.312Z,11.80
2017-08-14T06:00:33.008Z,11.90
2017-08-14T06:03:00.503Z,12.00
2017-08-14T06:05:27.979Z,12.10
2017-08-14T06:07:56.229Z,12.10
2017-08-14T06:10:23.738Z,12.10
2017-08-14T06:12:51.223Z,12.20
2017-08-14T06:15:18.703Z,12.30
2017-08-14T06:17:46.182Z,12.40
2017-08-14T06:20:14.419Z,12.60
2017-08-14T06:22:41.926Z,12.50
2017-08-14T06:25:09.412Z,12.70
2017-08-14T06:27:37.702Z,12.80
2017-08-14T06:30:05.215Z,12.90
2017-08-14T06:32:33.474Z,13.10
2017-08-14T06:35:00.958Z,13.00
2017-08-14T06:37:28.433Z,13.20
2017-08-14T06:39:55.934Z,13.30
2017-08-14T06:42:23.455Z,13.40
2017-08-14T06:44:50.970Z,13.50
2017-08-14T06:47:19.250Z,13.70
2017-08-14T06:49:46.770Z,13.70
2017-08-14T06:52:14.251Z,13.80
2017-08-14T06:54:41.742Z,13.90
2017-08-14T06:57:09.216Z,13.90
2017-08-14T06:59:36.695Z,14.10
2017-08-14T07:02:04.197Z,14.20
2017-08-14T07:04:32.435Z,14.30
2017-08-14T07:06:59.922Z,14.30
2017-08-14T07:09:28.167Z,14.50
2017-08-14T07:11:55.667Z,14.50
2017-08-14T07:14:23.904Z,14.80
2017-08-14T07:16:51.382Z,14.80
2017-08-14T07:19:18.859Z,14.90
2017-08-14T07:21:46.367Z,15.00
2017-08-14T07:24:13.839Z,15.10
2017-08-14T07:26:42.830Z,15.20
2017-08-14T07:29:10.298Z,15.10
2017-08-14T07:31:37.804Z,15.20
2017-08-14T07:34:05.299Z,15.20
2017-08-14T07:36:32.776Z,15.40
2017-08-14T07:39:00.269Z,15.50
2017-08-14T07:41:27.767Z,15.60
2017-08-14T07:43:55.283Z,15.70
2017-08-14T07:46:22.860Z,15.70
2017-08-14T07:48:50.384Z,15.80
2017-08-14T07:51:18.636Z,15.90
2017-08-14T07:53:46.169Z,15.90
2017-08-14T07:56:13.679Z,16.00
2017-08-14T07:58:41.164Z,16.10
2017-08-14T08:01:08.671Z,16.10
2017-08-14T08:03:36.989Z,16.30
2017-08-14T08:06:04.494Z,16.30
2017-08-14T08:08:32.051Z,16.40
2017-08-14T08:10:59.606Z,16.40
2017-08-14T08:13:27.132Z,16.50
2017-08-14T08:15:54.626Z,16.60
2017-08-14T08:18:22.111Z,16.80
2017-08-14T08:20:49.614Z,16.80
2017-08-14T08:23:17.118Z,16.90
2017-08-14T08:25:44.632Z,16.90
2017-08-14T08:28:12.119Z,16.90
2017-08-14T08:30:41.241Z,17.00
2017-08-14T08:33:08.781Z,17.10
2017-08-14T08:35:36.317Z,17.10
2017-08-14T08:38:03.814Z,17.10
2017-08-14T08:40:31.345Z,17.20
2017-08-14T08:42:58.836Z,17.20
2017-08-14T08:45:26.380Z,17.20
2017-08-14T08:47:54.635Z,17.30
2017-08-14T08:50:22.143Z,17.30
2017-08-14T08:52:49.761Z,17.40
2017-08-14T08:55:17.410Z,17.40
2017-08-14T08:57:44.938Z,17.50
2017-08-14T09:00:12.440Z,17.50
2017-08-14T09:02:39.948Z,17.60
2017-08-14T09:05:07.460Z,17.60
2017-08-14T09:07:35.743Z,17.60
2017-08-14T09:10:04.003Z,17.70
2017-08-14T09:12:31.510Z,17.70
2017-08-14T09:14:59.027Z,17.80
2017-08-14T09:17:27.330Z,17.80
2017-08-14T09:19:54.838Z,17.80
2017-08-14T09:22:22.344Z,17.90
2017-08-14T09:24:49.850Z,17.90
2017-08-14T09:27:17.373Z,18.00
2017-08-14T09:29:44.911Z,18.00
2017-08-14T09:32:12.408Z,18.00
2017-08-14T09:34:39.934Z,18.00
2017-08-14T09:37:07.454Z,18.10
2017-08-14T09:39:35.533Z,18.20
2017-08-14T09:42:03.817Z,18.20
2017-08-14T09:44:31.562Z,18.10
2017-08-14T09:46:59.144Z,18.10
2017-08-14T09:49:27.445Z,18.00
2017-08-14T09:51:54.959Z,18.00
2017-08-14T09:54:22.476Z,18.00
2017-08-14T09:56:50.003Z,18.00
2017-08-14T09:59:17.511Z,18.10
2017-08-14T10:01:45.027Z,18.20
2017-08-14T10:04:13.306Z,18.50
2017-08-14T10:06:40.825Z,18.50
2017-08-14T10:09:08.318Z,18.50
2017-08-14T10:11:35.839Z,18.60
2017-08-14T10:14:03.325Z,18.60
2017-08-14T10:16:30.843Z,18.60
2017-08-14T10:18:58.378Z,18.60
2017-08-14T10:21:25.877Z,18.50
2017-08-14T10:23:53.372Z,18.60
2017-08-14T10:26:20.850Z,18.70
2017-08-14T10:28:48.340Z,18.80
2017-08-14T10:31:15.827Z,18.90
2017-08-14T10:33:44.086Z,19.00
2017-08-14T10:36:11.563Z,19.00
2017-08-14T10:38:39.846Z,19.10
2017-08-14T10:41:07.348Z,19.00
2017-08-14T10:43:34.844Z,19.10
2017-08-14T10:46:02.323Z,19.20
2017-08-14T10:48:29.823Z,19.20
2017-08-14T10:50:57.294Z,19.20
2017-08-14T10:53:24.834Z,19.30
2017-08-14T10:55:52.338Z,19.40
2017-08-14T10:58:19.819Z,19.50
2017-08-14T11:00:47.307Z,19.50
2017-08-14T11:03:14.779Z,19.50
2017-08-14T11:05:42.287Z,19.50
2017-08-14T11:08:09.769Z,19.60
2017-08-14T11:10:37.263Z,19.60
2017-08-14T11:13:04.731Z,19.70
2017-08-14T11:15:32.234Z,19.70
2017-08-14T11:17:59.738Z,19.70
2017-08-14T11:20:27.231Z,19.70
2017-08-14T11:22:55.491Z,19.80
2017-08-14T11:25:23.751Z,19.80
2017-08-14T11:27:51.219Z,19.80
2017-08-14T11:30:18.700Z,19.80
2017-08-14T11:32:46.971Z,19.90
2017-08-14T11:35:15.262Z,20.00
2017-08-14T11:37:42.888Z,19.90
2017-08-14T11:40:10.360Z,20.00
2017-08-14T11:42:38.614Z,19.90
2017-08-14T11:45:06.093Z,19.90
2017-08-14T11:47:34.349Z,20.00
2017-08-14T11:50:01.839Z,20.00
2017-08-14T11:52:29.325Z,20.10
2017-08-14T11:54:56.803Z,20.20
2017-08-14T11:57:24.288Z,20.20
2017-08-14T11:59:52.532Z,20.30
2017-08-14T12:02:20.019Z,20.30
2017-08-14T12:04:47.514Z,20.40
2017-08-14T12:07:14.991Z,20.50
2017-08-14T12:09:42.483Z,20.50
2017-08-14T12:12:09.963Z,20.50
2017-08-14T12:14:37.457Z,20.50
2017-08-14T12:17:04.935Z,20.60
2017-08-14T12:19:32.419Z,20.60
2017-08-14T12:21:59.895Z,20.70
2017-08-14T12:24:28.151Z,20.70
2017-08-14T12:26:55.614Z,20.60
2017-08-14T12:29:23.853Z,20.70
2017-08-14T12:31:51.367Z,20.70
2017-08-14T12:34:18.840Z,20.70
2017-08-14T12:36:46.332Z,20.70
2017-08-14T12:39:13.811Z,20.70
2017-08-14T12:41:41.304Z,20.70
2017-08-14T12:44:08.794Z,20.80
2017-08-14T12:46:36.274Z,20.80
2017-08-14T12:49:03.756Z,20.70
2017-08-14T12:51:31.257Z,20.70
2017-08-14T12:53:58.740Z,20.80
2017-08-14T12:56:26.231Z,20.80
2017-08-14T12:58:53.702Z,20.90
2017-08-14T13:01:21.207Z,21.00
2017-08-14T13:03:48.699Z,21.00
2017-08-14T13:06:16.940Z,21.10
2017-08-14T13:08:44.466Z,21.10
2017-08-14T13:11:11.948Z,21.10
2017-08-14T13:13:39.454Z,21.20
2017-08-14T13:16:06.976Z,21.30
2017-08-14T13:18:34.477Z,21.20
2017-08-14T13:21:01.951Z,21.20
2017-08-14T13:23:29.462Z,21.30
2017-08-14T13:25:56.943Z,21.40
2017-08-14T13:28:25.209Z,21.40
2017-08-14T13:30:53.451Z,21.50
2017-08-14T13:33:20.932Z,21.40
2017-08-14T13:35:48.456Z,21.40
2017-08-14T13:38:15.947Z,21.40
2017-08-14T13:40:43.427Z,21.40
2017-08-14T13:43:11.676Z,21.50
2017-08-14T13:45:39.160Z,21.50
2017-08-14T13:48:06.643Z,21.50
2017-08-14T13:50:34.134Z,21.60
2017-08-14T13:53:01.617Z,21.60
2017-08-14T13:55:29.126Z,21.60
2017-08-14T13:57:56.605Z,21.60
2017-08-14T14:00:24.108Z,21.70
2017-08-14T14:02:52.369Z,21.60
2017-08-14T14:05:20.609Z,21.70
2017-08-14T14:07:48.116Z,21.70
2017-08-14T14:10:15.604Z,21.70
2017-08-14T14:12:43.098Z,21.60
2017-08-14T14:15:10.622Z,21.60
2017-08-14T14:17:38.127Z,21.70
2017-08-14T14:20:05.599Z,21.80
2017-08-14T14:22:36.312Z,21.80
2017-08-14T14:25:03.837Z,21.80
2017-08-14T14:27:31.343Z,21.80
2017-08-14T14:29:58.820Z,21.80
2017-08-14T14:32:26.304Z,21.80
2017-08-14T14:34:53.800Z,21.80
2017-08-14T14:37:21.271Z,21.80
2017-08-14T14:39:48.771Z,21.90
2017-08-14T14:42:16.256Z,21.90
2017-08-14T14:44:43.750Z,22.10
2017-08-14T14:47:11.830Z,22.10
2017-08-14T14:49:40.092Z,22.10
2017-08-14T14:52:07.564Z,22.10
2017-08-14T14:54:35.854Z,22.20
2017-08-14T14:57:03.326Z,22.20
2017-08-14T14:59:30.810Z,22.30
2017-08-14T15:01:58.491Z,22.50
2017-08-14T15:04:25.971Z,22.60
2017-08-14T15:06:54.226Z,22.70
2017-08-14T15:09:21.707Z,22.70
2017-08-14T15:11:49.198Z,22.80
2017-08-14T15:14:16.670Z,22.80
2017-08-14T15:16:44.167Z,22.80
2017-08-14T15:19:12.416Z,22.80
2017-08-14T15:21:39.902Z,22.80
2017-08-14T15:24:08.150Z,22.80
2017-08-14T15:26:35.643Z,22.80
2017-08-14T15:29:03.891Z,22.70
2017-08-14T15:31:31.615Z,22.70
2017-08-14T15:33:59.160Z,22.60
2017-08-14T15:36:26.660Z,22.50
2017-08-14T15:38:54.148Z,22.50
2017-08-14T15:41:21.629Z,22.40
2017-08-14T15:43:49.398Z,22.30
2017-08-14T15:46:17.152Z,22.30
2017-08-14T15:48:44.635Z,22.30
2017-08-14T15:51:12.117Z,22.30
2017-08-14T15:53:39.619Z,22.40
2017-08-14T15:56:07.096Z,22.40
2017-08-14T15:58:34.605Z,22.40
2017-08-14T16:01:02.081Z,22.40
2017-08-14T16:03:30.354Z,22.40
2017-08-14T16:05:58.651Z,22.30
2017-08-14T16:08:26.147Z,22.30
2017-08-14T16:10:53.647Z,22.30
2017-08-14T16:13:21.891Z,22.10
2017-08-14T16:15:49.379Z,22.10
2017-08-14T16:18:16.873Z,22.10
2017-08-14T16:20:44.369Z,22.00
2017-08-14T16:23:11.868Z,21.90
2017-08-14T16:25:39.365Z,22.00
2017-08-14T16:28:06.836Z,21.90
2017-08-14T16:30:34.327Z,21.80
2017-08-14T16:33:02.583Z,21.90
2017-08-14T16:35:30.085Z,21.90
2017-08-14T16:37:57.575Z,21.90
2017-08-14T16:40:25.053Z,21.80
2017-08-14T16:42:52.540Z,21.80
2017-08-14T16:45:20.053Z,21.80
2017-08-14T16:47:47.525Z,21.70
2017-08-14T16:50:15.008Z,21.60
2017-08-14T16:52:43.267Z,21.60
2017-08-14T16:55:11.515Z,21.50
2017-08-14T16:57:38.998Z,21.50
2017-08-14T17:00:06.482Z,21.40
2017-08-14T17:02:33.984Z,21.40
2017-08-14T17:05:01.487Z,21.40
2017-08-14T17:07:28.979Z,21.40
2017-08-14T17:09:56.463Z,21.40
2017-08-14T17:12:23.944Z,21.40
2017-08-14T17:14:51.431Z,21.40
2017-08-14T17:17:18.915Z,21.40
2017-08-14T17:19:46.422Z,21.40
2017-08-14T17:22:13.903Z,21.30
2017-08-14T17:24:41.399Z,21.30
2017-08-14T17:27:08.871Z,21.30
2017-08-14T17:29:36.358Z,21.30
2017-08-14T17:32:03.935Z,21.20
2017-08-14T17:34:31.439Z,21.20
2017-08-14T17:36:58.931Z,21.20
2017-08-14T17:39:26.425Z,21.20
2017-08-14T17:41:53.903Z,21.10
2017-08-14T17:44:21.388Z,21.10
2017-08-14T17:46:48.878Z,21.00
2017-08-14T17:49:16.354Z,21.10
2017-08-14T17:51:43.844Z,21.00
2017-08-14T17:54:11.320Z,20.90
2017-08-14T17:56:38.843Z,20.90
2017-08-14T17:59:06.319Z,20.80
2017-08-14T18:01:33.840Z,20.80
2017-08-14T18:04:01.328Z,20.80
2017-08-14T18:06:28.824Z,20.70
2017-08-14T18:08:57.066Z,20.60
2017-08-14T18:11:24.605Z,20.60
2017-08-14T18:13:52.089Z,20.60
2017-08-14T18:16:19.570Z,20.60
2017-08-14T18:18:47.074Z,20.50
2017-08-14T18:21:14.575Z,20.50
2017-08-14T18:23:42.067Z,20.40
2017-08-14T18:26:09.567Z,20.30
2017-08-14T18:28:37.069Z,20.30
2017-08-14T18:31:04.563Z,20.20
2017-08-14T18:33:32.054Z,20.20
2017-08-14T18:35:59.538Z,20.10
2017-08-14T18:38:27.043Z,20.00
2017-08-14T18:40:54.523Z,20.00
2017-08-14T18:43:22.033Z,19.90
2017-08-14T18:45:49.571Z,19.80
2017-08-14T18:48:17.855Z,19.70
2017-08-14T18:50:45.355Z,19.70
2017-08-14T18:53:12.981Z,19.60
2017-08-14T18:55:40.491Z,19.50
2017-08-14T18:58:07.999Z,19.40
2017-08-14T19:00:36.431Z,19.40
2017-08-14T19:03:03.931Z,19.30
2017-08-14T19:05:31.436Z,19.30
2017-08-14T19:08:00.519Z,19.20
2017-08-14T19:10:26.515Z,19.20
2017-08-14T19:12:53.989Z,19.10
2017-08-14T19:15:21.495Z,19.00
2017-08-14T19:17:51.514Z,18.90
2017-08-14T19:20:20.115Z,18.80
2017-08-14T19:22:47.613Z,18.80
2017-08-14T19:25:15.133Z,18.70
2017-08-14T19:27:42.622Z,18.70
2017-08-14T19:30:10.130Z,18.70
2017-08-14T19:32:38.380Z,18.70
2017-08-14T19:35:05.933Z,18.70
2017-08-14T19:37:33.457Z,18.70
2017-08-14T19:40:00.943Z,18.70
2017-08-14T19:42:28.455Z,18.60
2017-08-14T19:44:55.938Z,18.60
2017-08-14T19:47:24.014Z,18.50
2017-08-14T19:49:51.500Z,18.50
2017-08-14T19:52:18.995Z,18.40
2017-08-14T19:54:46.484Z,18.40
2017-08-14T19:57:14.005Z,18.40
2017-08-14T19:59:41.486Z,18.30
2017-08-14T20:02:08.969Z,18.30
2017-08-14T20:04:36.463Z,18.30
2017-08-14T20:07:03.955Z,18.20
2017-08-14T20:09:31.463Z,18.20
2017-08-14T20:11:59.740Z,18.10
2017-08-14T20:14:27.231Z,18.10
2017-08-14T20:16:54.716Z,18.10
2017-08-14T20:19:22.214Z,18.00
2017-08-14T20:21:49.696Z,17.90
2017-08-14T20:24:17.969Z,17.90
2017-08-14T20:26:46.223Z,17.90
2017-08-14T20:29:13.731Z,17.90
2017-08-14T20:31:41.221Z,17.80
2017-08-14T20:34:08.740Z,17.80
2017-08-14T20:36:36.246Z,17.70
2017-08-14T20:39:03.762Z,17.70
2017-08-14T20:41:31.288Z,17.60
2017-08-14T20:43:59.556Z,17.70
2017-08-14T20:46:27.060Z,17.60
2017-08-14T20:48:54.568Z,17.60
2017-08-14T20:51:22.076Z,17.60
2017-08-14T20:53:49.571Z,17.70
2017-08-14T20:56:17.084Z,17.70
2017-08-14T20:58:44.592Z,17.80
2017-08-14T21:01:12.091Z,17.80
2017-08-14T21:03:39.588Z,17.80
2017-08-14T21:06:07.104Z,17.80
2017-08-14T21:08:34.590Z,17.70
2017-08-14T21:11:02.103Z,17.70
2017-08-14T21:13:29.593Z,17.70
2017-08-14T21:15:57.088Z,17.70
2017-08-14T21:18:24.595Z,17.60
2017-08-14T21:20:52.111Z,17.60
2017-08-14T21:23:19.597Z,17.60
2017-08-14T21:25:47.110Z,17.60
2017-08-14T21:28:14.607Z,17.60
2017-08-14T21:30:42.873Z,17.60
2017-08-14T21:33:11.131Z,17.70
2017-08-14T21:35:38.973Z,17.70
2017-08-14T21:38:06.504Z,17.70
2017-08-14T21:40:33.993Z,17.80
2017-08-14T21:43:01.510Z,17.80
2017-08-14T21:45:29.018Z,17.90
2017-08-14T21:47:56.516Z,17.90
2017-08-14T21:50:24.762Z,18.00
2017-08-14T21:52:52.284Z,18.00
2017-08-14T21:55:19.791Z,18.00
2017-08-14T21:57:47.272Z,18.00
2017-08-14T22:00:14.790Z,18.00
2017-08-14T22:02:42.288Z,18.00
2017-08-14T22:05:09.796Z,18.00
2017-08-14T22:07:37.282Z,18.00
2017-08-14T22:10:04.795Z,18.10
2017-08-14T22:12:32.283Z,18.10
2017-08-14T22:14:59.793Z,18.20
2017-08-14T22:17:27.286Z,18.30
2017-08-14T22:19:54.802Z,18.20
2017-08-14T22:22:22.311Z,18.30
2017-08-14T22:24:49.792Z,18.40
2017-08-14T22:27:18.051Z,18.40
2017-08-14T22:29:45.555Z,18.40
2017-08-14T22:32:13.057Z,18.40
2017-08-14T22:34:40.540Z,18.30
2017-08-14T22:37:08.035Z,18.40
2017-08-14T22:39:35.536Z,18.40
2017-08-14T22:42:03.038Z,18.40
2017-08-14T22:44:30.537Z,18.30
2017-08-14T22:46:58.032Z,18.30
2017-08-14T22:49:26.304Z,18.30
2017-08-14T22:51:53.811Z,18.30
2017-08-14T22:54:21.303Z,18.30
2017-08-14T22:56:48.819Z,18.40
2017-08-14T22:59:16.313Z,18.40
2017-08-14T23:01:43.807Z,18.40
2017-08-14T23:04:11.291Z,18.50
2017-08-14T23:06:38.786Z,18.50
2017-08-14T23:09:06.279Z,18.40
2017-08-14T23:11:33.755Z,18.40
2017-08-14T23:14:01.269Z,18.40
2017-08-14T23:16:29.532Z,18.50
2017-08-14T23:18:57.039Z,18.50
2017-08-14T23:21:24.523Z,18.50
2017-08-14T23:23:52.032Z,18.50
2017-08-14T23:26:20.287Z,18.40
2017-08-14T23:28:47.778Z,18.40
2017-08-14T23:31:15.254Z,18.30
2017-08-14T23:33:42.758Z,18.20
2017-08-14T23:36:10.251Z,18.20
2017-08-14T23:38:37.752Z,18.20
2017-08-14T23:41:05.230Z,18.20
2017-08-14T23:43:32.953Z,18.10
2017-08-14T23:46:00.435Z,18.00
2017-08-14T23:48:27.939Z,18.00
2017-08-14T23:50:55.427Z,18.00
2017-08-14T23:53:22.934Z,17.90
2017-08-14T23:55:50.427Z,17.90
2017-08-14T23:58:17.919Z,17.80
